Airfield :
LOGIN :

Register | Disclaimer

   EN    FR    IT 

 










Legend :    VFR   Marginal VFR   IFR   Intensive IFR   Very Intensive IFR
Visi :
Ceiling :
>= 8 km
>= 3000ft
5 to 8 km
1000 to 3000 ft
1500m to 5 km
500 to 1000 ft
800 to 1500m
200 to 500 ft
< 800m
< 200 ft
Symbols :   Thunderstorms  Fog  Heavy snow  Heavy precipitations  Wind > 20 kt
SIGMETs :     Misc.  Thunderstorms  Icing  Turbulence  Mountain Waves  Volcanic Ashes







- Airport Elevation : 256 ft
- IATA code : CFR
- Download approach charts


LFRK - Caen

CURRENT METAR :
  • 221030Z AUTO 25010KT CAVOK 06/03 Q1006 TEMPO 4000 SHRA BKN020TCU

EXPIRED METARs :
  • 221000Z AUTO 25010KT 9999 SCT040 BKN047 05/02 Q1006 TEMPO 4000 SHRA BKN020TCU
  • 220930Z AUTO 25009KT CAVOK 04/02 Q1006 TEMPO 4000 SHRA BKN020TCU
  • 220900Z AUTO 25008KT CAVOK 04/02 Q1006 TEMPO 4000 SHRA BKN020TCU
  • 220830Z AUTO 24008KT CAVOK 03/02 Q1006 TEMPO 4000 SHRA BKN020TCU
  • 220800Z AUTO 24008KT CAVOK 04/02 Q1006 TEMPO 25015G25KT 4000 SHRA BKN020TCU

TAF TAF LFRK
Valid from the 22 at 09:00 until the 22 at 18:00 UTC


220800Z 2209/2218 26010KT 9999 SCT030
TEMPO 2209/2218 4000 SHRA BKN020TCU
PROB40
TEMPO 2213/2218 26015G25KT 3000 SHRAGS BKN012CB
Met : +33 2 31 26 68 11
No reported NOTAMs for that airfield.



MET'MAP, your aeronautical weather chart ! - Copyright ORBIFLY December 2007 - Disclaimer

ORBIFLY MET'MAP TEAM :

Programming & Development : Alexandra Zaïnal
Concept & Development : Baudouin d'Aumeries
Co-Development & Prog : Marc-Olivier Méhu
Technical & hardware support : Manuel Goepfert

Contact : metmap@orbifly.com




SOURCES & CREDITS :

   NOAA